Time;durP1;ratioP1;P1;durP2;ratioP2;P2;SDS_P1;SDS_P2;PMS_P1;PMS_P2;Temp;Humidity;BMP_temperature;BMP_pressure;BME280_temperature;BME280_humidity;BME280_pressure;Samples;Min_cycle;Max_cycle;Signal;HPM_P1;HPM_P2
2021/05/27 00:00:50;;;;;;;;;;;;;;;19.18;46.91;100563.59;2105152;28;3880;-32
2021/05/27 00:01:52;;;;;;;;;;;;;;;19.18;46.77;100566.44;2106235;28;3871;-30
2021/05/27 00:02:53;;;;;;;;;;;;;;;19.18;46.94;100562.78;2103984;28;3850;-29
2021/05/27 00:03:54;;;;;;;;;;;;;;;19.17;46.84;100563.97;2106345;28;4045;-29
2021/05/27 00:04:55;;;;;;;;;;;;;;;19.16;46.78;100560.31;2105965;28;4166;-29
2021/05/27 00:05:56;;;;;;;;;;;;;;;19.17;46.83;100567.63;2096812;28;4059;-30
2021/05/27 00:06:58;;;;;;;;;;;;;;;19.17;46.89;100561.13;2097209;28;3996;-32
2021/05/27 00:07:59;;;;;;;;;;;;;;;19.16;46.78;100565.13;2105304;28;4060;-30
2021/05/27 00:09:00;;;;;;;;;;;;;;;19.16;46.86;100565.97;2105789;28;4044;-29
2021/05/27 00:10:01;;;;;;;;;;;;;;;19.15;46.72;100564.28;2105780;28;4050;-31
2021/05/27 00:11:02;;;;;;;;;;;;;;;19.15;46.89;100564.28;2106266;28;4010;-31
2021/05/27 00:12:04;;;;;;;;;;;;;;;19.14;46.87;100571.97;2105600;28;4101;-28
2021/05/27 00:13:05;;;;;;;;;;;;;;;19.13;46.61;100561.81;2105016;28;4082;-32
2021/05/27 00:14:13;;;;;;;;;;;;;;;19.12;46.80;100565.00;2105785;28;4088;-31
2021/05/27 00:15:14;;;;;;;;;;;;;;;19.13;46.74;100567.50;2103776;28;4060;-32
2021/05/27 00:16:16;;;;;;;;;;;;;;;19.11;46.65;100569.84;2106530;28;3982;-29
2021/05/27 00:17:17;;;;;;;;;;;;;;;19.11;46.65;100564.16;2105859;28;3995;-28
2021/05/27 00:18:18;;;;;;;;;;;;;;;19.11;46.70;100558.50;2105437;28;4037;-28
2021/05/27 00:19:20;;;;;;;;;;;;;;;19.11;46.57;100561.34;2105399;28;3913;-28
2021/05/27 00:20:21;;;;;;;;;;;;;;;19.10;46.67;100562.53;2105761;28;3815;-30
2021/05/27 00:21:22;;;;;;;;;;;;;;;19.09;46.55;100560.84;2105813;28;4048;-30
2021/05/27 00:22:23;;;;;;;;;;;;;;;19.11;46.63;100566.19;2104479;28;4179;-30
2021/05/27 00:23:25;;;;;;;;;;;;;;;19.09;46.64;100569.34;2105857;28;4000;-31
2021/05/27 00:24:26;;;;;;;;;;;;;;;19.08;46.65;100564.88;2104983;28;3989;-28
2021/05/27 00:25:27;;;;;;;;;;;;;;;19.08;46.57;100570.53;2104910;28;3962;-29
2021/05/27 00:26:28;;;;;;;;;;;;;;;19.08;46.72;100564.03;2104849;28;4046;-31
2021/05/27 00:27:29;;;;;;;;;;;;;;;19.07;46.50;100563.19;2103618;28;3944;-30
2021/05/27 00:28:30;;;;;;;;;;;;;;;19.06;46.52;100564.38;2105591;28;4029;-28
2021/05/27 00:29:32;;;;;;;;;;;;;;;19.07;46.64;100566.03;2105492;28;3969;-32
2021/05/27 00:30:33;;;;;;;;;;;;;;;19.06;46.59;100570.03;2103511;28;3985;-30
2021/05/27 00:31:34;;;;;;;;;;;;;;;19.07;46.64;100568.03;2103929;28;4384;-30
2021/05/27 00:32:35;;;;;;;;;;;;;;;19.07;46.57;100571.69;2104158;28;4042;-29
2021/05/27 00:33:36;;;;;;;;;;;;;;;19.06;46.61;100572.88;2104560;28;3959;-30
2021/05/27 00:34:38;;;;;;;;;;;;;;;19.06;46.50;100570.03;2104314;28;3836;-28
2021/05/27 00:35:39;;;;;;;;;;;;;;;19.07;46.57;100576.53;2105130;28;6198;-29
2021/05/27 00:36:40;;;;;;;;;;;;;;;19.05;46.44;100570.38;2105506;28;4040;-28
2021/05/27 00:37:41;;;;;;;;;;;;;;;19.05;46.46;100568.41;2104224;28;4045;-28
2021/05/27 00:38:42;;;;;;;;;;;;;;;19.05;46.45;100576.06;2105462;28;4114;-28
2021/05/27 00:39:44;;;;;;;;;;;;;;;19.04;46.57;100572.41;2104854;28;4253;-30
2021/05/27 00:40:45;;;;;;;;;;;;;;;19.04;46.58;100582.91;2106133;28;4081;-30
2021/05/27 00:41:46;;;;;;;;;;;;;;;19.04;46.56;100575.22;2104870;28;4207;-30
2021/05/27 00:42:47;;;;;;;;;;;;;;;19.04;46.53;100582.91;2105382;28;4066;-28
2021/05/27 00:43:48;;;;;;;;;;;;;;;19.03;46.42;100578.44;2105672;28;4059;-29
2021/05/27 00:44:50;;;;;;;;;;;;;;;19.02;46.41;100580.44;2104801;28;4270;-32
2021/05/27 00:45:51;;;;;;;;;;;;;;;19.02;46.40;100571.06;2104330;28;4054;-28
2021/05/27 00:46:52;;;;;;;;;;;;;;;19.01;46.41;100575.09;2105332;28;4062;-28
2021/05/27 00:47:53;;;;;;;;;;;;;;;19.01;46.45;100578.75;2104412;28;4015;-29
2021/05/27 00:48:59;;;;;;;;;;;;;;;19.01;46.35;100577.94;2106540;28;4075;-29
2021/05/27 00:50:00;;;;;;;;;;;;;;;19.00;46.50;100585.63;2105608;28;4162;-30
2021/05/27 00:51:01;;;;;;;;;;;;;;;19.01;46.51;100580.75;2104753;28;4040;-28
2021/05/27 00:52:03;;;;;;;;;;;;;;;19.00;46.47;100579.13;2105894;28;4055;-28
2021/05/27 00:53:04;;;;;;;;;;;;;;;18.98;46.43;100573.78;2104678;28;3920;-31
2021/05/27 00:54:05;;;;;;;;;;;;;;;18.99;46.51;100574.59;2104990;28;3888;-33
2021/05/27 00:55:06;;;;;;;;;;;;;;;18.98;46.26;100582.28;2102841;28;4326;-31
2021/05/27 00:56:08;;;;;;;;;;;;;;;18.98;46.44;100582.28;2104286;28;3882;-28
2021/05/27 00:57:09;;;;;;;;;;;;;;;18.98;46.30;100572.97;2105326;28;4057;-29
2021/05/27 00:58:10;;;;;;;;;;;;;;;18.99;46.33;100571.78;2105190;28;4183;-28
2021/05/27 00:59:11;;;;;;;;;;;;;;;18.98;46.31;100576.63;2104722;28;4028;-30
2021/05/27 01:00:13;;;;;;;;;;;;;;;18.98;46.29;100585.13;2105472;28;4039;-31
2021/05/27 01:01:14;;;;;;;;;;;;;;;18.96;46.25;100567.63;2103440;28;3879;-30
2021/05/27 01:02:15;;;;;;;;;;;;;;;18.98;46.32;100587.13;2105335;28;4027;-31
2021/05/27 01:03:16;;;;;;;;;;;;;;;18.96;46.27;100570.44;2104698;28;4036;-30
2021/05/27 01:04:18;;;;;;;;;;;;;;;18.97;46.21;100580.63;2103524;28;3924;-31
2021/05/27 01:05:19;;;;;;;;;;;;;;;18.96;46.24;100583.81;2105707;28;3998;-31
2021/05/27 01:06:20;;;;;;;;;;;;;;;18.95;46.18;100585.81;2104374;28;3873;-31
2021/05/27 01:07:22;;;;;;;;;;;;;;;18.93;46.17;100585.31;2103893;28;3923;-28
2021/05/27 01:08:24;;;;;;;;;;;;;;;18.92;46.21;100583.69;2104700;28;4003;-28
2021/05/27 01:09:25;;;;;;;;;;;;;;;18.91;46.26;100587.66;2103894;28;4068;-28
2021/05/27 01:10:26;;;;;;;;;;;;;;;18.91;46.30;100585.69;2105140;28;4003;-33
2021/05/27 01:11:27;;;;;;;;;;;;;;;18.91;46.35;100582.84;2104507;28;4131;-29
2021/05/27 01:12:29;;;;;;;;;;;;;;;18.91;46.15;100579.16;2094653;28;4058;-29
2021/05/27 01:13:30;;;;;;;;;;;;;;;18.90;46.25;100575.50;2095816;28;3808;-28
2021/05/27 01:15:51;;;;;;;;;;;;;;;18.89;46.25;100579.53;2104395;28;4910;-32
2021/05/27 01:16:52;;;;;;;;;;;;;;;18.90;46.19;100581.16;2104951;28;4024;-30
2021/05/27 01:17:53;;;;;;;;;;;;;;;18.90;46.05;100586.00;2104189;28;4039;-29
2021/05/27 01:18:55;;;;;;;;;;;;;;;18.89;46.29;100584.38;2105887;28;4066;-29
2021/05/27 01:19:56;;;;;;;;;;;;;;;18.88;46.10;100585.53;2105584;28;3969;-30
2021/05/27 01:20:57;;;;;;;;;;;;;;;18.89;46.13;100587.19;2105462;28;3854;-31
2021/05/27 01:21:58;;;;;;;;;;;;;;;18.88;46.23;100583.53;2104516;28;4040;-31
2021/05/27 01:23:00;;;;;;;;;;;;;;;18.88;46.24;100582.69;2103909;28;3898;-29
2021/05/27 01:24:01;;;;;;;;;;;;;;;18.88;46.18;100585.53;2103975;28;4112;-28
2021/05/27 01:25:02;;;;;;;;;;;;;;;18.88;45.97;100588.34;2105482;28;4067;-28
2021/05/27 01:26:03;;;;;;;;;;;;;;;18.87;46.21;100583.88;2105291;28;3979;-31
2021/05/27 01:27:04;;;;;;;;;;;;;;;18.87;46.03;100581.88;2102915;28;4027;-30
2021/05/27 01:28:06;;;;;;;;;;;;;;;18.84;46.08;100579.72;2103464;28;5065;-29
2021/05/27 01:29:07;;;;;;;;;;;;;;;18.86;46.00;100587.91;2104421;28;3885;-31
2021/05/27 01:30:08;;;;;;;;;;;;;;;18.86;46.06;100585.06;2102808;28;4044;-28
2021/05/27 01:31:09;;;;;;;;;;;;;;;18.86;46.04;100579.38;2103245;28;3913;-28
2021/05/27 01:32:11;;;;;;;;;;;;;;;18.85;46.14;100589.03;2102757;28;3923;-28
2021/05/27 01:33:12;;;;;;;;;;;;;;;18.84;46.00;100584.56;2103956;28;4122;-28
2021/05/27 01:34:13;;;;;;;;;;;;;;;18.85;46.03;100589.03;2102959;28;3874;-30
2021/05/27 01:35:14;;;;;;;;;;;;;;;18.84;46.02;100590.22;2105209;28;4056;-30
2021/05/27 01:36:15;;;;;;;;;;;;;;;18.84;46.05;100585.38;2104661;28;3826;-29
2021/05/27 01:37:17;;;;;;;;;;;;;;;18.84;46.07;100588.22;2104470;28;4023;-29
2021/05/27 01:38:18;;;;;;;;;;;;;;;18.83;45.84;100591.38;2105455;28;4013;-30
2021/05/27 01:39:19;;;;;;;;;;;;;;;18.84;45.96;100587.41;2104968;28;4043;-30
2021/05/27 01:40:20;;;;;;;;;;;;;;;18.83;45.95;100591.38;2104726;28;4042;-30
2021/05/27 01:41:21;;;;;;;;;;;;;;;18.84;45.92;100590.22;2105038;28;3882;-29
2021/05/27 01:42:23;;;;;;;;;;;;;;;18.83;45.98;100588.56;2104658;28;3879;-29
2021/05/27 01:43:24;;;;;;;;;;;;;;;18.82;45.90;100589.75;2104297;28;4071;-31
2021/05/27 01:44:25;;;;;;;;;;;;;;;18.82;46.01;100592.56;2103312;28;4933;-31
2021/05/27 01:45:26;;;;;;;;;;;;;;;18.80;45.81;100590.09;2105276;28;4304;-30
2021/05/27 01:46:28;;;;;;;;;;;;;;;18.81;45.82;100591.75;2102658;28;4012;-29
2021/05/27 01:47:29;;;;;;;;;;;;;;;18.79;45.89;100585.59;2104317;28;3816;-29
2021/05/27 01:48:30;;;;;;;;;;;;;;;18.81;45.79;100590.94;2105102;28;3826;-28
2021/05/27 01:49:31;;;;;;;;;;;;;;;18.80;45.78;100586.41;2103636;28;3960;-29
2021/05/27 01:50:32;;;;;;;;;;;;;;;18.80;45.74;100589.25;2104909;28;4026;-30
2021/05/27 01:51:34;;;;;;;;;;;;;;;18.80;45.78;100594.91;2105244;28;4013;-32
2021/05/27 01:52:35;;;;;;;;;;;;;;;18.79;46.01;100591.25;2105454;28;4089;-30
2021/05/27 01:53:36;;;;;;;;;;;;;;;18.79;45.94;100585.59;2104606;28;4036;-28
2021/05/27 01:54:37;;;;;;;;;;;;;;;18.79;45.96;100594.09;2104074;28;3881;-30
2021/05/27 01:55:39;;;;;;;;;;;;;;;18.78;45.91;100588.78;2104711;28;4114;-29
2021/05/27 01:56:40;;;;;;;;;;;;;;;18.78;45.93;100591.63;2104614;28;4029;-29
2021/05/27 01:57:41;;;;;;;;;;;;;;;18.79;45.97;100596.94;2105246;28;4062;-28
2021/05/27 01:58:42;;;;;;;;;;;;;;;18.78;45.82;100597.28;2104737;28;4070;-30
2021/05/27 01:59:43;;;;;;;;;;;;;;;18.77;45.80;100590.75;2104526;28;3860;-31
2021/05/27 02:00:45;;;;;;;;;;;;;;;18.78;45.98;100600.94;2104983;28;4983;-29
2021/05/27 02:01:46;;;;;;;;;;;;;;;18.76;45.85;100599.63;2105348;28;4065;-30
2021/05/27 02:02:47;;;;;;;;;;;;;;;18.77;45.85;100595.59;2104753;28;4162;-29
2021/05/27 02:03:48;;;;;;;;;;;;;;;18.75;45.80;100600.81;2104752;28;4067;-30
2021/05/27 02:04:50;;;;;;;;;;;;;;;18.76;45.97;100593.97;2104676;28;4123;-29
2021/05/27 02:05:51;;;;;;;;;;;;;;;18.76;46.04;100596.78;2103394;28;4006;-31
2021/05/27 02:06:52;;;;;;;;;;;;;;;18.76;45.78;100596.78;2104213;28;4048;-28
2021/05/27 02:07:53;;;;;;;;;;;;;;;18.74;45.84;100594.28;2104709;28;4037;-29
2021/05/27 02:09:08;;;;;;;;;;;;;;;18.74;45.84;100587.75;2103990;28;4042;-28
2021/05/27 02:10:09;;;;;;;;;;;;;;;18.75;46.01;100592.31;2104894;28;4041;-32
2021/05/27 02:11:10;;;;;;;;;;;;;;;18.75;46.01;100595.16;2104807;28;4222;-31
2021/05/27 02:12:11;;;;;;;;;;;;;;;18.74;45.86;100599.09;2104846;28;4040;-30
2021/05/27 02:13:13;;;;;;;;;;;;;;;18.73;45.92;100603.94;2103969;28;4040;-30
2021/05/27 02:14:14;;;;;;;;;;;;;;;18.73;45.86;100597.44;2104610;28;4110;-28
2021/05/27 02:15:15;;;;;;;;;;;;;;;18.73;45.96;100600.28;2103373;28;3837;-30
2021/05/27 02:16:16;;;;;;;;;;;;;;;18.72;45.93;100592.94;2104860;28;4054;-30
2021/05/27 02:17:17;;;;;;;;;;;;;;;18.73;45.96;100597.44;2105683;28;4974;-28
2021/05/27 02:18:19;;;;;;;;;;;;;;;18.73;45.99;100600.28;2104367;28;3876;-32
2021/05/27 02:19:20;;;;;;;;;;;;;;;18.73;45.96;100605.94;2103935;28;4039;-32
2021/05/27 02:20:21;;;;;;;;;;;;;;;18.73;45.91;100598.28;2104757;28;3908;-30
2021/05/27 02:21:22;;;;;;;;;;;;;;;18.73;45.99;100595.44;2102697;28;3899;-31
2021/05/27 02:22:24;;;;;;;;;;;;;;;18.74;45.97;100599.09;2104141;28;3989;-31
2021/05/27 02:23:25;;;;;;;;;;;;;;;18.73;46.01;100603.13;2105677;28;4065;-33
2021/05/27 02:24:26;;;;;;;;;;;;;;;18.71;45.95;100600.59;2104129;28;4012;-30
2021/05/27 02:25:28;;;;;;;;;;;;;;;18.72;45.89;100595.78;2104571;28;3968;-33
2021/05/27 02:26:29;;;;;;;;;;;;;;;18.70;45.92;100596.94;2104813;28;4037;-29
2021/05/27 02:27:30;;;;;;;;;;;;;;;18.72;45.91;100601.44;2104707;28;4163;-28
2021/05/27 02:28:31;;;;;;;;;;;;;;;18.72;45.81;100595.78;2105280;28;4015;-30
2021/05/27 02:29:32;;;;;;;;;;;;;;;18.72;46.04;100595.78;2104149;28;3766;-31
2021/05/27 02:30:34;;;;;;;;;;;;;;;18.72;46.00;100599.47;2104360;28;4868;-29
2021/05/27 02:31:35;;;;;;;;;;;;;;;18.72;45.93;100601.44;2104882;28;4041;-29
2021/05/27 02:32:36;;;;;;;;;;;;;;;18.71;45.96;100600.59;2103314;28;4060;-29
2021/05/27 02:33:37;;;;;;;;;;;;;;;18.70;45.96;100596.94;2103574;28;4085;-32
2021/05/27 02:34:39;;;;;;;;;;;;;;;18.69;45.96;100595.31;2105053;28;4059;-31
2021/05/27 02:35:40;;;;;;;;;;;;;;;18.70;46.08;100599.78;2104951;28;4115;-29
2021/05/27 02:36:41;;;;;;;;;;;;;;;18.68;46.19;100602.13;2104567;28;4079;-29
2021/05/27 02:37:43;;;;;;;;;;;;;;;18.68;45.96;100596.47;2104382;28;4321;-30
2021/05/27 02:38:44;;;;;;;;;;;;;;;18.67;46.11;100594.81;2104555;28;4049;-29
2021/05/27 02:39:45;;;;;;;;;;;;;;;18.69;46.11;100602.94;2105071;28;4029;-31
2021/05/27 02:40:46;;;;;;;;;;;;;;;18.68;46.12;100604.13;2104801;28;4071;-28
2021/05/27 02:41:48;;;;;;;;;;;;;;;18.68;46.05;100596.47;2104378;28;4115;-29
2021/05/27 02:42:49;;;;;;;;;;;;;;;18.69;46.11;100598.13;2103870;28;4125;-27
2021/05/27 02:43:50;;;;;;;;;;;;;;;18.69;46.03;100600.97;2101275;28;4072;-29
2021/05/27 02:44:52;;;;;;;;;;;;;;;18.68;46.10;100606.97;2103042;28;3869;-27
2021/05/27 02:45:53;;;;;;;;;;;;;;;18.66;46.24;100604.50;2104460;28;4065;-28
2021/05/27 02:46:54;;;;;;;;;;;;;;;18.67;46.17;100602.47;2104601;28;4135;-31
2021/05/27 02:47:55;;;;;;;;;;;;;;;18.67;46.02;100611.81;2104686;28;3881;-32
2021/05/27 02:48:56;;;;;;;;;;;;;;;18.68;46.06;100613.47;2103755;28;3885;-28
2021/05/27 02:49:58;;;;;;;;;;;;;;;18.67;45.98;100606.16;2104548;28;4088;-28
2021/05/27 02:50:59;;;;;;;;;;;;;;;18.67;46.10;100606.16;2104076;28;4037;-30
2021/05/27 02:52:00;;;;;;;;;;;;;;;18.66;46.18;100610.16;2104474;28;3941;-29
2021/05/27 02:53:01;;;;;;;;;;;;;;;18.68;46.10;100615.47;2104797;28;4040;-32
2021/05/27 02:54:02;;;;;;;;;;;;;;;18.68;46.13;100613.47;2103724;28;4017;-29
2021/05/27 02:55:04;;;;;;;;;;;;;;;18.67;46.08;100606.16;2104134;28;4151;-27
2021/05/27 02:56:05;;;;;;;;;;;;;;;18.66;46.09;100610.16;2105641;28;3812;-30
2021/05/27 02:57:06;;;;;;;;;;;;;;;18.66;46.16;100610.16;2104510;28;4058;-32
2021/05/27 02:58:07;;;;;;;;;;;;;;;18.68;46.21;100606.97;2104645;28;3833;-29
2021/05/27 02:59:08;;;;;;;;;;;;;;;18.66;46.21;100615.81;2104233;28;4124;-28
2021/05/27 03:00:10;;;;;;;;;;;;;;;18.66;46.22;100614.97;2104543;28;4013;-29
2021/05/27 03:01:11;;;;;;;;;;;;;;;18.66;46.21;100609.31;2104877;28;4042;-32
2021/05/27 03:02:12;;;;;;;;;;;;;;;18.66;46.21;100609.31;2103527;28;4167;-29
2021/05/27 03:03:15;;;;;;;;;;;;;;;18.66;46.28;100609.31;2103830;28;3992;-31
2021/05/27 03:04:17;;;;;;;;;;;;;;;18.64;46.21;100612.50;2103855;28;4066;-33
2021/05/27 03:05:18;;;;;;;;;;;;;;;18.66;46.08;100612.13;2103279;28;4047;-29
2021/05/27 03:06:19;;;;;;;;;;;;;;;18.64;46.09;100612.50;2106340;28;4206;-29
2021/05/27 03:07:20;;;;;;;;;;;;;;;18.63;46.28;100607.97;2105778;28;4021;-28
2021/05/27 03:08:22;;;;;;;;;;;;;;;18.64;46.13;100615.34;2105791;28;4113;-30
2021/05/27 03:09:23;;;;;;;;;;;;;;;18.65;46.27;100610.50;2105791;28;4038;-29
2021/05/27 03:10:24;;;;;;;;;;;;;;;18.65;46.09;100616.97;2105895;28;3993;-28
2021/05/27 03:11:25;;;;;;;;;;;;;;;18.64;46.10;100612.50;2105839;28;3961;-33
2021/05/27 03:12:27;;;;;;;;;;;;;;;18.64;46.22;100609.66;2106517;28;4273;-31
2021/05/27 03:13:28;;;;;;;;;;;;;;;18.65;46.36;100607.66;2105903;28;3866;-28
2021/05/27 03:14:29;;;;;;;;;;;;;;;18.65;46.19;100611.31;2105522;28;3975;-29
2021/05/27 03:15:31;;;;;;;;;;;;;;;18.65;46.22;100610.50;2104715;28;4002;-29
2021/05/27 03:16:32;;;;;;;;;;;;;;;18.65;46.19;100607.66;2105946;28;4011;-31
2021/05/27 03:17:33;;;;;;;;;;;;;;;18.65;46.20;100614.16;2105436;28;3926;-33
2021/05/27 03:18:35;;;;;;;;;;;;;;;18.65;46.29;100614.16;2105214;28;4499;-28
2021/05/27 03:19:36;;;;;;;;;;;;;;;18.65;46.25;100608.47;2106184;28;4038;-30
2021/05/27 03:20:37;;;;;;;;;;;;;;;18.65;46.10;100611.31;2105878;28;4028;-29
2021/05/27 03:21:38;;;;;;;;;;;;;;;18.65;46.25;100613.31;2106489;28;4108;-31
2021/05/27 03:22:39;;;;;;;;;;;;;;;18.64;46.30;100618.16;2105484;28;4068;-32
2021/05/27 03:23:41;;;;;;;;;;;;;;;18.65;46.41;100616.16;2105050;28;3957;-29
2021/05/27 03:24:42;;;;;;;;;;;;;;;18.65;46.44;100613.31;2105951;28;4000;-31
2021/05/27 03:25:43;;;;;;;;;;;;;;;18.65;46.19;100614.16;2105785;28;3901;-30
2021/05/27 03:26:44;;;;;;;;;;;;;;;18.65;46.33;100627.50;2105965;28;4058;-28
2021/05/27 03:27:45;;;;;;;;;;;;;;;18.64;46.41;100618.16;2104960;28;4087;-28
2021/05/27 03:28:47;;;;;;;;;;;;;;;18.63;46.43;100616.47;2104601;28;4056;-28
2021/05/27 03:29:48;;;;;;;;;;;;;;;18.64;46.42;100615.34;2105303;28;4080;-29
2021/05/27 03:30:49;;;;;;;;;;;;;;;18.64;46.45;100620.19;2104176;28;4035;-31
2021/05/27 03:31:50;;;;;;;;;;;;;;;18.63;46.42;100616.47;2105902;28;4185;-31
2021/05/27 03:32:52;;;;;;;;;;;;;;;18.63;46.37;100616.47;2105029;28;4002;-32
2021/05/27 03:33:53;;;;;;;;;;;;;;;18.62;46.49;100614.84;2105129;28;4052;-28
2021/05/27 03:34:54;;;;;;;;;;;;;;;18.63;46.40;100622.16;2105388;28;3989;-29
2021/05/27 03:35:55;;;;;;;;;;;;;;;18.64;46.49;100617.34;2105329;28;4027;-29
2021/05/27 03:36:56;;;;;;;;;;;;;;;18.63;46.36;100624.16;2105551;28;4033;-28
2021/05/27 03:37:58;;;;;;;;;;;;;;;18.62;46.41;100617.66;2105044;28;4270;-28
2021/05/27 03:38:59;;;;;;;;;;;;;;;18.63;46.39;100616.47;2104181;28;4156;-29
2021/05/27 03:40:16;;;;;;;;;;;;;;;18.62;46.72;100620.50;2106785;28;3915;-30
2021/05/27 03:41:17;;;;;;;;;;;;;;;18.62;46.31;100631.00;2106303;28;3980;-30
2021/05/27 03:42:18;;;;;;;;;;;;;;;18.62;46.37;100623.34;2106902;28;4138;-29
2021/05/27 03:43:19;;;;;;;;;;;;;;;18.62;46.49;100622.50;2104388;28;4018;-28
2021/05/27 03:44:21;;;;;;;;;;;;;;;18.62;46.56;100626.16;2106356;28;3953;-28
2021/05/27 03:45:22;;;;;;;;;;;;;;;18.61;46.62;100624.53;2105788;28;3991;-28
2021/05/27 03:46:23;;;;;;;;;;;;;;;18.61;46.63;100621.69;2106295;28;4002;-30
2021/05/27 03:47:24;;;;;;;;;;;;;;;18.60;46.54;100622.00;2106057;28;4021;-32
2021/05/27 03:48:26;;;;;;;;;;;;;;;18.60;46.46;100622.84;2106093;28;3988;-29
2021/05/27 03:49:27;;;;;;;;;;;;;;;18.60;46.63;100624.84;2105856;28;3840;-28
2021/05/27 03:50:28;;;;;;;;;;;;;;;18.59;46.46;100626.84;2106381;28;4207;-28
2021/05/27 03:51:30;;;;;;;;;;;;;;;18.58;46.53;100627.19;2106176;28;4094;-29
2021/05/27 03:52:31;;;;;;;;;;;;;;;18.60;46.51;100634.16;2105833;28;4201;-28
2021/05/27 03:53:32;;;;;;;;;;;;;;;18.60;46.63;100634.16;2105431;28;3965;-30
2021/05/27 03:54:33;;;;;;;;;;;;;;;18.60;46.69;100627.69;2106570;28;3823;-28
2021/05/27 03:55:34;;;;;;;;;;;;;;;18.60;46.65;100631.34;2105426;28;4429;-29
2021/05/27 03:56:36;;;;;;;;;;;;;;;18.60;46.73;100631.34;2105167;28;4015;-31
2021/05/27 03:57:37;;;;;;;;;;;;;;;18.61;46.75;100633.03;2105644;28;4018;-29
2021/05/27 04:01:19;;;;;;;;;;;;;;;18.60;46.72;100639.84;2106402;28;4120;-29
2021/05/27 04:02:21;;;;;;;;;;;;;;;18.59;46.72;100638.19;2105656;28;4039;-32
2021/05/27 04:03:23;;;;;;;;;;;;;;;18.59;46.71;100635.34;2106121;28;4008;-30
2021/05/27 04:07:11;;;;;;;;;;;;;;;18.62;46.89;100643.16;2105594;28;3893;-32
2021/05/27 04:08:12;;;;;;;;;;;;;;;18.61;46.87;100638.69;2104598;28;4048;-28
2021/05/27 04:09:13;;;;;;;;;;;;;;;18.61;46.89;100641.53;2105325;28;4009;-31
2021/05/27 04:10:15;;;;;;;;;;;;;;;18.60;46.70;100637.00;2105278;28;4103;-29
2021/05/27 04:11:16;;;;;;;;;;;;;;;18.62;46.81;100645.19;2106277;28;3981;-30
2021/05/27 04:13:37;;;;;;;;;;;;;;;18.60;46.95;100641.84;2105971;28;4882;-30
2021/05/27 04:14:38;;;;;;;;;;;;;;;18.60;46.83;100644.69;2105818;28;4054;-30
2021/05/27 04:15:39;;;;;;;;;;;;;;;18.59;46.84;100641.03;2106521;28;3975;-28
2021/05/27 04:16:40;;;;;;;;;;;;;;;18.60;46.87;100653.19;2105278;28;4068;-33
2021/05/27 04:17:42;;;;;;;;;;;;;;;18.61;47.04;100650.03;2104100;28;4219;-28
2021/05/27 04:18:43;;;;;;;;;;;;;;;18.60;47.08;100651.16;2103943;28;4100;-28
2021/05/27 04:19:44;;;;;;;;;;;;;;;18.59;46.81;100645.88;2105804;28;3913;-32
2021/05/27 04:20:46;;;;;;;;;;;;;;;18.59;46.91;100652.34;2105445;28;4117;-28
2021/05/27 04:21:47;;;;;;;;;;;;;;;18.60;46.91;100650.34;2105055;28;4027;-27
2021/05/27 04:22:48;;;;;;;;;;;;;;;18.60;46.89;100644.69;2104319;28;4081;-29
2021/05/27 04:23:49;;;;;;;;;;;;;;;18.59;47.06;100649.53;2105174;28;4131;-30
2021/05/27 04:24:50;;;;;;;;;;;;;;;18.59;46.95;100646.69;2105836;28;4162;-28
2021/05/27 04:25:52;;;;;;;;;;;;;;;18.59;46.97;100643.84;2103440;28;3919;-29
2021/05/27 04:26:53;;;;;;;;;;;;;;;18.59;47.01;100648.69;2104500;28;3901;-30
2021/05/27 04:27:54;;;;;;;;;;;;;;;18.59;47.04;100651.53;2104954;28;4057;-28
2021/05/27 04:28:55;;;;;;;;;;;;;;;18.59;47.26;100645.88;2104926;28;4079;-33
2021/05/27 04:30:12;;;;;;;;;;;;;;;18.60;47.10;100656.00;2104871;28;3903;-27
2021/05/27 04:31:14;;;;;;;;;;;;;;;18.60;47.08;100656.00;2105431;28;4049;-31
2021/05/27 04:33:35;;;;;;;;;;;;;;;18.60;47.22;100661.69;2104591;28;4710;-29
2021/05/27 04:34:36;;;;;;;;;;;;;;;18.60;47.26;100661.69;2105156;28;4066;-31
2021/05/27 04:35:38;;;;;;;;;;;;;;;18.59;47.13;100657.19;2104407;28;4073;-30
2021/05/27 04:36:39;;;;;;;;;;;;;;;18.59;47.13;100655.19;2104795;28;4069;-28
2021/05/27 04:37:40;;;;;;;;;;;;;;;18.60;47.17;100662.50;2105177;28;3904;-31
2021/05/27 04:38:41;;;;;;;;;;;;;;;18.59;47.18;100663.69;2103999;28;4077;-30
2021/05/27 04:39:42;;;;;;;;;;;;;;;18.60;47.18;100656.00;2104448;28;4185;-30
2021/05/27 04:40:44;;;;;;;;;;;;;;;18.59;47.27;100660.03;2105158;28;3908;-28
2021/05/27 04:41:45;;;;;;;;;;;;;;;18.58;47.28;100662.03;2104859;28;4105;-31
2021/05/27 04:42:46;;;;;;;;;;;;;;;18.58;47.11;100664.88;2105366;28;3879;-31
2021/05/27 04:43:53;;;;;;;;;;;;;;;18.59;47.24;100665.69;2104147;28;4448;-28
2021/05/27 04:44:54;;;;;;;;;;;;;;;18.58;47.37;100667.69;2104578;28;4039;-28
2021/05/27 04:45:55;;;;;;;;;;;;;;;18.58;47.26;100662.03;2103502;28;4069;-28
2021/05/27 04:46:56;;;;;;;;;;;;;;;18.57;47.27;100666.03;2105251;28;3909;-29
2021/05/27 04:47:58;;;;;;;;;;;;;;;18.57;47.33;100668.84;2104678;28;3852;-29
2021/05/27 04:48:59;;;;;;;;;;;;;;;18.56;47.38;100667.19;2104738;28;4065;-32
2021/05/27 04:50:00;;;;;;;;;;;;;;;18.58;47.42;100664.88;2104848;28;4034;-28
2021/05/27 04:51:01;;;;;;;;;;;;;;;18.57;47.45;100660.34;2104557;28;3972;-28
2021/05/27 04:52:03;;;;;;;;;;;;;;;18.57;47.47;100665.19;2103507;28;3932;-32
2021/05/27 04:53:04;;;;;;;;;;;;;;;18.56;47.56;100658.72;2104921;28;4058;-28
2021/05/27 04:54:05;;;;;;;;;;;;;;;18.56;47.43;100658.72;2104357;28;4122;-27
2021/05/27 04:55:06;;;;;;;;;;;;;;;18.57;47.63;100663.19;2104882;28;3879;-29
2021/05/27 04:56:07;;;;;;;;;;;;;;;18.57;47.49;100663.19;2103758;28;4070;-28
2021/05/27 04:57:09;;;;;;;;;;;;;;;18.57;47.63;100662.38;2105030;28;4041;-33
2021/05/27 04:58:10;;;;;;;;;;;;;;;18.57;47.53;100668.84;2105484;28;3851;-30
2021/05/27 04:59:11;;;;;;;;;;;;;;;18.58;47.39;100661.19;2105716;28;4036;-29
2021/05/27 05:00:12;;;;;;;;;;;;;;;18.57;47.63;100660.34;2102651;28;4047;-33
2021/05/27 05:01:14;;;;;;;;;;;;;;;18.57;47.68;100660.34;2103180;28;3887;-33
2021/05/27 05:02:15;;;;;;;;;;;;;;;18.58;47.65;100670.53;2104436;28;3912;-28
2021/05/27 05:03:16;;;;;;;;;;;;;;;18.57;47.68;100660.34;2104257;28;4045;-28
2021/05/27 05:04:17;;;;;;;;;;;;;;;18.58;47.72;100669.69;2104643;28;3911;-33
2021/05/27 05:05:18;;;;;;;;;;;;;;;18.56;47.57;100664.38;2103951;28;4160;-32
2021/05/27 05:06:20;;;;;;;;;;;;;;;18.58;47.65;100664.00;2104355;28;4059;-32
2021/05/27 05:07:21;;;;;;;;;;;;;;;18.58;47.53;100670.53;2105207;28;3865;-32
2021/05/27 05:08:22;;;;;;;;;;;;;;;18.59;47.73;100660.03;2103984;28;4044;-28
2021/05/27 05:09:23;;;;;;;;;;;;;;;18.59;47.92;100662.88;2105046;28;4104;-28
2021/05/27 05:10:24;;;;;;;;;;;;;;;18.59;47.51;100665.69;2104472;28;3857;-28
2021/05/27 05:11:26;;;;;;;;;;;;;;;18.59;47.80;100666.53;2104504;28;4050;-29
2021/05/27 05:12:27;;;;;;;;;;;;;;;18.59;47.64;100660.84;2104747;28;3825;-29
2021/05/27 05:13:28;;;;;;;;;;;;;;;18.59;47.65;100669.34;2104493;28;3951;-28
2021/05/27 05:14:29;;;;;;;;;;;;;;;18.59;47.76;100665.69;2104303;28;3840;-30
2021/05/27 05:15:31;;;;;;;;;;;;;;;18.59;47.76;100666.53;2104396;28;4012;-30
2021/05/27 05:16:32;;;;;;;;;;;;;;;18.59;47.91;100666.53;2104332;28;3964;-30
2021/05/27 05:17:33;;;;;;;;;;;;;;;18.62;47.83;100671.50;2104659;28;3905;-27
2021/05/27 05:18:35;;;;;;;;;;;;;;;18.66;47.57;100666.84;2103740;28;5286;-30
2021/05/27 05:19:36;;;;;;;;;;;;;;;18.69;47.50;100673.78;2105592;28;4040;-30
2021/05/27 05:20:41;;;;;;;;;;;;;;;18.72;47.50;100672.28;2105162;28;4299;-32
2021/05/27 05:21:42;;;;;;;;;;;;;;;18.74;47.72;100667.09;2105080;28;3917;-31
2021/05/27 05:22:44;;;;;;;;;;;;;;;18.76;47.45;100667.63;2103809;28;3967;-33
2021/05/27 05:23:45;;;;;;;;;;;;;;;18.76;47.54;100662.78;2098611;28;4144;-31
2021/05/27 05:24:46;;;;;;;;;;;;;;;18.78;47.53;100677.47;2101979;28;4012;-31
2021/05/27 05:25:47;;;;;;;;;;;;;;;18.79;47.54;100670.63;2097509;28;3876;-31
2021/05/27 05:26:49;;;;;;;;;;;;;;;18.80;47.42;100671.44;2100111;28;4022;-33
2021/05/27 05:27:50;;;;;;;;;;;;;;;18.81;47.62;100661.78;2103193;28;4143;-34
2021/05/27 05:28:51;;;;;;;;;;;;;;;18.83;47.43;100665.09;2103227;28;4054;-31
2021/05/27 05:29:52;;;;;;;;;;;;;;;18.84;47.59;100678.09;2102671;28;3950;-32